createdAt,value
2022-09-13T00:01:11.728Z,85.34
2022-09-13T00:03:42.917Z,85.30
2022-09-13T00:06:13.440Z,85.16
2022-09-13T00:08:44.484Z,84.82
2022-09-13T00:11:18.016Z,84.78
2022-09-13T00:13:46.737Z,84.38
2022-09-13T00:16:17.301Z,84.03
2022-09-13T00:18:46.278Z,83.73
2022-09-13T00:21:17.634Z,83.26
2022-09-13T00:23:49.553Z,83.17
2022-09-13T00:26:20.159Z,83.12
2022-09-13T00:28:54.185Z,83.02
2022-09-13T00:31:24.286Z,83.18
2022-09-13T00:33:58.600Z,83.25
2022-09-13T00:36:26.886Z,83.27
2022-09-13T00:38:56.658Z,83.68
2022-09-13T00:41:25.062Z,83.88
2022-09-13T00:43:54.627Z,84.24
2022-09-13T00:46:27.217Z,84.49
2022-09-13T00:49:03.159Z,84.76
2022-09-13T00:51:32.729Z,84.95
2022-09-13T00:54:03.758Z,85.26
2022-09-13T00:56:35.660Z,85.47
2022-09-13T00:59:07.824Z,85.68
2022-09-13T01:01:40.276Z,85.67
2022-09-13T01:04:12.496Z,85.71
2022-09-13T01:06:41.637Z,85.42
2022-09-13T01:09:14.083Z,85.40
2022-09-13T01:11:49.323Z,85.05
2022-09-13T01:14:19.199Z,84.86
2022-09-13T01:16:48.323Z,84.99
2022-09-13T01:19:17.806Z,85.05
2022-09-13T01:22:29.579Z,85.24
2022-09-13T01:25:15.867Z,85.67
2022-09-13T01:27:57.145Z,86.04
2022-09-13T01:30:33.448Z,86.28
2022-09-13T01:33:37.986Z,86.55
2022-09-13T01:36:33.000Z,86.92
2022-09-13T01:39:05.265Z,86.92
2022-09-13T01:41:56.031Z,86.99
2022-09-13T01:44:31.970Z,87.22
2022-09-13T01:47:08.035Z,87.39
2022-09-13T01:49:45.004Z,87.77
2022-09-13T01:52:19.323Z,87.97
2022-09-13T01:54:53.527Z,88.00
2022-09-13T01:57:24.805Z,88.10
2022-09-13T01:59:54.902Z,88.09
2022-09-13T02:02:31.869Z,88.16
2022-09-13T02:05:04.173Z,87.90
2022-09-13T02:07:36.530Z,87.67
2022-09-13T02:10:06.556Z,87.14
2022-09-13T02:12:36.575Z,86.78
2022-09-13T02:15:08.646Z,86.68
2022-09-13T02:17:39.782Z,86.64
2022-09-13T02:20:11.961Z,86.84
2022-09-13T02:22:43.562Z,86.85
2022-09-13T02:25:15.290Z,86.80
2022-09-13T02:27:48.829Z,86.57
2022-09-13T02:30:17.275Z,86.50
2022-09-13T02:32:51.238Z,86.44
2022-09-13T02:35:22.989Z,86.48
2022-09-13T02:37:58.745Z,86.79
2022-09-13T02:40:33.155Z,87.10
2022-09-13T02:43:05.801Z,87.44
2022-09-13T02:45:37.590Z,87.72
2022-09-13T02:48:12.488Z,87.94
2022-09-13T02:50:47.261Z,88.07
2022-09-13T02:53:20.049Z,88.19
2022-09-13T02:55:56.631Z,88.09
2022-09-13T02:58:32.107Z,88.26
2022-09-13T03:01:00.634Z,88.28
2022-09-13T03:03:32.071Z,88.50
2022-09-13T03:06:00.556Z,88.65
2022-09-13T03:08:29.425Z,88.96
2022-09-13T03:11:08.204Z,89.06
2022-09-13T03:13:49.986Z,89.14
2022-09-13T03:16:35.243Z,89.30
2022-09-13T03:19:19.638Z,89.29
2022-09-13T03:22:01.519Z,89.32
2022-09-13T03:24:35.192Z,89.28
2022-09-13T03:27:11.577Z,89.12
2022-09-13T03:29:44.860Z,89.23
2022-09-13T03:32:22.108Z,89.19
2022-09-13T03:34:57.054Z,89.13
2022-09-13T03:37:29.323Z,89.10
2022-09-13T03:40:05.093Z,88.94
2022-09-13T03:42:35.949Z,88.78
2022-09-13T03:45:06.411Z,88.69
2022-09-13T03:47:36.831Z,88.44
2022-09-13T03:50:09.502Z,88.09
2022-09-13T03:52:37.713Z,87.83
2022-09-13T03:55:07.497Z,87.62
2022-09-13T03:57:35.773Z,87.47
2022-09-13T04:00:06.045Z,87.36
2022-09-13T04:02:34.513Z,87.20
2022-09-13T04:05:03.048Z,86.88
2022-09-13T04:07:32.705Z,86.59
2022-09-13T04:10:01.304Z,86.31
2022-09-13T04:12:31.899Z,86.14
2022-09-13T04:15:01.696Z,85.98
2022-09-13T04:17:30.850Z,85.90
2022-09-13T04:19:59.538Z,85.85
2022-09-13T04:22:28.732Z,85.72
2022-09-13T04:25:02.142Z,85.73
2022-09-13T04:27:31.117Z,85.77
2022-09-13T04:29:59.512Z,85.74
2022-09-13T04:32:28.685Z,85.71
2022-09-13T04:34:57.074Z,85.51
2022-09-13T04:37:26.743Z,85.25
2022-09-13T04:39:55.242Z,85.07
2022-09-13T04:42:25.592Z,84.88
2022-09-13T04:44:53.997Z,84.69
2022-09-13T04:47:24.615Z,84.58
2022-09-13T04:49:53.125Z,84.48
2022-09-13T04:52:21.716Z,84.50
2022-09-13T04:54:50.863Z,84.54
2022-09-13T04:57:19.831Z,84.31
2022-09-13T04:59:51.645Z,84.23
2022-09-13T05:02:19.790Z,84.32
2022-09-13T05:04:48.085Z,84.27
2022-09-13T05:07:16.488Z,84.07
2022-09-13T05:09:46.295Z,84.01
2022-09-13T05:12:17.045Z,83.72
2022-09-13T05:14:48.496Z,83.20
2022-09-13T05:17:17.877Z,82.62
2022-09-13T05:19:45.994Z,82.77
2022-09-13T05:22:14.374Z,82.65
2022-09-13T05:24:43.390Z,82.91
2022-09-13T05:27:12.106Z,83.13
2022-09-13T05:29:40.103Z,82.68
2022-09-13T05:32:13.862Z,83.05
2022-09-13T05:34:43.313Z,83.45
2022-09-13T05:37:11.339Z,84.38
2022-09-13T05:40:07.329Z,85.45
2022-09-13T05:42:27.941Z,86.32
2022-09-13T05:44:57.414Z,86.99
2022-09-13T05:47:27.410Z,87.82
2022-09-13T05:50:10.321Z,88.51
2022-09-13T05:52:40.964Z,88.75
2022-09-13T05:55:10.119Z,89.11
2022-09-13T05:57:38.549Z,89.30
2022-09-13T06:00:07.635Z,89.36
2022-09-13T06:02:36.078Z,89.61
2022-09-13T06:05:07.006Z,89.49
2022-09-13T06:07:35.685Z,89.83
2022-09-13T06:10:05.462Z,90.06
2022-09-13T06:12:33.631Z,90.43
2022-09-13T06:15:03.334Z,90.70
2022-09-13T06:17:31.454Z,91.00
2022-09-13T06:20:00.116Z,91.32
2022-09-13T06:22:33.232Z,91.43
2022-09-13T06:25:01.662Z,91.57
2022-09-13T06:27:31.577Z,91.69
2022-09-13T06:30:00.325Z,91.78
2022-09-13T06:32:28.366Z,91.83
2022-09-13T06:34:56.716Z,92.00
2022-09-13T06:37:26.353Z,92.03
2022-09-13T06:40:01.887Z,92.10
2022-09-13T06:42:31.451Z,92.23
2022-09-13T06:44:59.987Z,92.28
2022-09-13T06:47:28.236Z,92.37
2022-09-13T06:49:57.519Z,92.44
2022-09-13T06:52:30.304Z,92.56
2022-09-13T06:55:00.425Z,92.52
2022-09-13T06:57:31.172Z,92.44
2022-09-13T06:59:59.452Z,92.45
2022-09-13T07:02:27.721Z,92.44
2022-09-13T07:05:04.576Z,92.47
2022-09-13T07:07:32.922Z,92.28
2022-09-13T07:10:02.727Z,92.28
2022-09-13T07:12:33.901Z,92.06
2022-09-13T07:15:04.854Z,92.04
2022-09-13T07:17:34.476Z,91.99
2022-09-13T07:20:09.357Z,91.96
2022-09-13T07:22:37.407Z,91.87
2022-09-13T07:25:09.566Z,91.88
2022-09-13T07:27:40.458Z,91.67
2022-09-13T07:30:13.034Z,91.55
2022-09-13T07:32:42.812Z,91.44
2022-09-13T07:35:15.876Z,91.16
2022-09-13T07:37:48.960Z,90.77
2022-09-13T07:40:20.064Z,90.64
2022-09-13T07:42:50.758Z,90.62
2022-09-13T07:45:20.459Z,90.31
2022-09-13T07:47:49.405Z,90.01
2022-09-13T07:50:19.878Z,90.10
2022-09-13T07:52:48.367Z,89.92
2022-09-13T07:55:20.168Z,90.21
2022-09-13T07:57:48.256Z,89.99
2022-09-13T08:00:20.007Z,89.48
2022-09-13T08:02:48.232Z,89.51
2022-09-13T08:05:18.665Z,89.39
2022-09-13T08:07:50.139Z,89.42
2022-09-13T08:10:22.285Z,89.39
2022-09-13T08:12:52.016Z,89.24
2022-09-13T08:15:33.491Z,89.34
2022-09-13T08:18:23.771Z,89.22
2022-09-13T08:20:54.021Z,89.07
2022-09-13T08:23:26.167Z,89.24
2022-09-13T08:25:57.280Z,89.38
2022-09-13T08:28:27.871Z,89.64
2022-09-13T08:30:59.169Z,89.87
2022-09-13T08:33:27.331Z,89.72
2022-09-13T08:35:59.368Z,89.59
2022-09-13T08:38:28.413Z,88.27
2022-09-13T08:40:58.989Z,87.07
2022-09-13T08:43:45.765Z,85.50
2022-09-13T08:46:23.212Z,84.10
2022-09-13T08:48:59.254Z,83.74
2022-09-13T08:51:41.062Z,83.38
2022-09-13T08:54:12.946Z,82.15
2022-09-13T08:57:02.544Z,80.34
2022-09-13T08:59:46.499Z,80.31
2022-09-13T09:02:26.550Z,79.12
2022-09-13T09:04:58.699Z,77.06
2022-09-13T09:07:34.917Z,76.31
2022-09-13T09:10:05.236Z,76.37
2022-09-13T09:12:37.129Z,75.78
2022-09-13T09:15:16.637Z,75.78
2022-09-13T09:17:50.845Z,73.84
2022-09-13T09:20:29.277Z,74.45
2022-09-13T09:22:57.671Z,73.67
2022-09-13T09:25:27.035Z,73.12
2022-09-13T09:27:55.901Z,72.93
2022-09-13T09:30:34.086Z,72.60
2022-09-13T09:33:19.731Z,72.96
2022-09-13T09:35:55.697Z,71.61
2022-09-13T09:38:41.761Z,71.97
2022-09-13T09:41:19.206Z,72.96
2022-09-13T09:43:53.896Z,73.61
2022-09-13T09:46:28.391Z,72.06
2022-09-13T09:48:58.310Z,71.89
2022-09-13T09:51:28.477Z,70.34
2022-09-13T09:54:05.777Z,70.11
2022-09-13T09:56:36.487Z,69.46
2022-09-13T09:59:04.613Z,69.43
2022-09-13T10:01:38.702Z,70.99
2022-09-13T10:04:09.715Z,70.56
2022-09-13T10:06:39.427Z,68.27
2022-09-13T10:09:18.151Z,68.62
2022-09-13T10:11:49.289Z,67.72
2022-09-13T10:14:38.923Z,67.44
2022-09-13T10:17:17.790Z,67.25
2022-09-13T10:19:54.229Z,66.02
2022-09-13T10:22:23.292Z,64.85
2022-09-13T10:24:52.689Z,66.36
2022-09-13T10:27:24.389Z,65.83
2022-09-13T10:29:59.730Z,65.67
2022-09-13T10:32:37.782Z,65.81
2022-09-13T10:35:10.986Z,66.67
2022-09-13T10:37:43.389Z,66.44
2022-09-13T10:40:21.223Z,66.47
2022-09-13T10:42:56.109Z,66.20
2022-09-13T10:45:28.901Z,66.94
2022-09-13T10:48:16.439Z,66.95
2022-09-13T10:51:05.222Z,66.57
2022-09-13T10:56:32.534Z,69.43
2022-09-13T10:59:17.038Z,72.85
2022-09-13T11:01:55.603Z,74.99
2022-09-13T11:04:57.319Z,76.31
2022-09-13T11:07:38.185Z,78.04
2022-09-13T11:10:13.065Z,79.42
2022-09-13T11:15:47.754Z,81.59
2022-09-13T11:18:37.445Z,82.58
2022-09-13T11:21:13.606Z,83.07
2022-09-13T11:23:50.634Z,83.99
2022-09-13T11:26:34.095Z,84.80
2022-09-13T11:29:15.302Z,85.15
2022-09-13T11:31:45.060Z,85.45
2022-09-13T11:34:23.615Z,85.85
2022-09-13T11:37:08.582Z,86.17
2022-09-13T11:39:40.143Z,86.51
2022-09-13T11:42:25.898Z,86.69
2022-09-13T11:45:22.618Z,87.04
2022-09-13T11:48:10.845Z,87.14
2022-09-13T11:50:48.339Z,87.06
2022-09-13T11:53:36.082Z,87.09
2022-09-13T11:56:08.943Z,87.18
2022-09-13T11:58:41.038Z,87.08
2022-09-13T12:01:12.865Z,87.12
2022-09-13T12:03:44.451Z,87.28
2022-09-13T12:06:16.444Z,87.46
2022-09-13T12:08:52.805Z,86.63
2022-09-13T12:11:25.731Z,86.23
2022-09-13T12:13:57.890Z,86.49
2022-09-13T12:16:35.925Z,86.48
2022-09-13T12:19:09.245Z,86.30
2022-09-13T12:21:41.781Z,85.85
2022-09-13T12:24:16.301Z,86.05
2022-09-13T12:26:49.021Z,85.46
2022-09-13T12:29:20.706Z,85.15
2022-09-13T12:31:49.185Z,84.47
2022-09-13T12:34:23.117Z,84.10
2022-09-13T12:37:12.028Z,83.68
2022-09-13T12:40:01.520Z,82.24
2022-09-13T12:43:01.423Z,82.66
2022-09-13T12:45:46.051Z,82.87
2022-09-13T12:48:37.016Z,82.08
2022-09-13T12:51:10.423Z,81.21
2022-09-13T12:53:57.087Z,81.45
2022-09-13T12:56:54.851Z,82.12
2022-09-13T12:59:44.802Z,81.36
2022-09-13T13:02:38.598Z,81.06
2022-09-13T13:05:20.760Z,81.36
2022-09-13T13:07:55.115Z,82.03
2022-09-13T13:10:28.110Z,81.83
2022-09-13T13:12:58.937Z,80.98
2022-09-13T13:15:56.898Z,81.13
2022-09-13T13:18:27.444Z,80.91
2022-09-13T13:21:35.239Z,81.65
2022-09-13T13:24:45.935Z,81.18
2022-09-13T13:27:37.946Z,80.87
2022-09-13T13:30:53.005Z,80.68
2022-09-13T13:33:25.766Z,79.89
2022-09-13T13:35:55.140Z,80.07
2022-09-13T13:38:44.469Z,80.22
2022-09-13T13:41:39.583Z,80.37
2022-09-13T13:44:45.377Z,80.02
2022-09-13T13:48:03.057Z,79.94
2022-09-13T13:50:35.094Z,79.70
2022-09-13T13:53:24.528Z,79.83
2022-09-13T13:56:10.020Z,79.57
2022-09-13T13:58:47.383Z,79.84
2022-09-13T14:01:19.666Z,79.85
2022-09-13T14:03:52.763Z,79.17
2022-09-13T14:06:30.474Z,78.47
2022-09-13T14:09:04.902Z,77.94
2022-09-13T14:11:49.528Z,78.48
2022-09-13T14:14:46.150Z,78.77
2022-09-13T14:17:47.885Z,78.45
2022-09-13T14:20:18.155Z,78.62
2022-09-13T14:22:47.986Z,78.13
2022-09-13T14:25:24.546Z,77.93
2022-09-13T14:27:56.538Z,77.55
2022-09-13T14:30:27.370Z,77.62
2022-09-13T14:32:59.058Z,77.75
2022-09-13T14:35:30.517Z,78.17
2022-09-13T14:38:14.660Z,78.21
2022-09-13T14:40:43.095Z,78.13
2022-09-13T14:43:19.483Z,78.50
2022-09-13T14:45:55.793Z,78.96
2022-09-13T14:48:26.428Z,79.37
2022-09-13T14:50:59.488Z,78.84
2022-09-13T14:53:34.988Z,79.06
2022-09-13T14:56:05.578Z,78.74
2022-09-13T14:58:42.827Z,78.63
2022-09-13T15:01:14.143Z,78.22
2022-09-13T15:03:43.374Z,78.74
2022-09-13T15:06:23.171Z,79.31
2022-09-13T15:08:53.538Z,78.94
2022-09-13T15:11:31.855Z,79.42
2022-09-13T15:14:21.135Z,79.31
2022-09-13T15:16:51.153Z,79.56
2022-09-13T15:19:31.186Z,80.23
2022-09-13T15:22:23.024Z,80.37
2022-09-13T15:24:54.974Z,80.27
2022-09-13T15:27:26.843Z,81.01
2022-09-13T15:29:57.312Z,81.44
2022-09-13T15:32:33.136Z,81.80
2022-09-13T15:35:02.848Z,81.86
2022-09-13T15:37:37.169Z,81.95
2022-09-13T15:40:21.488Z,81.63
2022-09-13T15:42:51.575Z,81.92
2022-09-13T15:45:21.954Z,82.04
2022-09-13T15:47:52.004Z,82.19
2022-09-13T15:50:23.413Z,82.24
2022-09-13T15:52:52.184Z,82.44
2022-09-13T15:55:22.079Z,82.62
2022-09-13T15:57:50.480Z,82.77
2022-09-13T16:00:20.631Z,83.05
2022-09-13T16:02:49.073Z,83.16
2022-09-13T16:05:17.304Z,83.58
2022-09-13T16:07:45.702Z,83.96
2022-09-13T16:10:16.783Z,84.20
2022-09-13T16:12:46.373Z,84.46
2022-09-13T16:15:15.699Z,84.65
2022-09-13T16:17:43.791Z,84.80
2022-09-13T16:20:15.339Z,84.87
2022-09-13T16:22:46.135Z,84.84
2022-09-13T16:25:19.396Z,84.71
2022-09-13T16:27:50.463Z,84.82
2022-09-13T16:30:39.816Z,84.84
2022-09-13T16:33:09.265Z,84.84
2022-09-13T16:35:39.292Z,84.96
2022-09-13T16:38:15.512Z,85.03
2022-09-13T16:40:46.246Z,85.15
2022-09-13T16:43:14.691Z,85.41
2022-09-13T16:45:46.536Z,85.56
2022-09-13T16:48:19.289Z,85.56
2022-09-13T16:50:47.421Z,85.56
2022-09-13T16:53:16.881Z,85.65
2022-09-13T16:55:47.637Z,85.56
2022-09-13T16:58:24.388Z,85.40
2022-09-13T17:00:56.631Z,85.17
2022-09-13T17:03:30.137Z,85.12
2022-09-13T17:06:06.423Z,85.02
2022-09-13T17:08:35.656Z,85.11
2022-09-13T17:11:09.274Z,85.18
2022-09-13T17:13:38.078Z,85.25
2022-09-13T17:16:22.630Z,85.29
2022-09-13T17:18:59.608Z,85.36
2022-09-13T17:21:34.015Z,85.46
2022-09-13T17:24:03.013Z,85.60
2022-09-13T17:26:31.748Z,85.76
2022-09-13T17:29:01.179Z,85.96
2022-09-13T17:31:30.962Z,86.19
2022-09-13T17:34:00.946Z,86.26
2022-09-13T17:36:33.571Z,86.49
2022-09-13T17:39:02.718Z,86.68
2022-09-13T17:41:31.952Z,86.90
2022-09-13T17:44:07.742Z,86.99
2022-09-13T17:46:39.751Z,87.28
2022-09-13T17:49:19.886Z,87.53
2022-09-13T17:51:51.988Z,87.65
2022-09-13T17:54:33.025Z,87.87
2022-09-13T17:57:19.610Z,88.07
2022-09-13T17:59:53.964Z,88.32
2022-09-13T18:02:23.924Z,88.66
2022-09-13T18:04:52.288Z,88.73
2022-09-13T18:07:21.525Z,89.10
2022-09-13T18:09:52.640Z,89.36
2022-09-13T18:12:30.398Z,89.63
2022-09-13T18:15:03.653Z,89.87
2022-09-13T18:17:47.235Z,90.01
2022-09-13T18:20:47.676Z,90.11
2022-09-13T18:23:41.982Z,90.25
2022-09-13T18:26:50.415Z,90.31
2022-09-13T18:29:22.387Z,90.66
2022-09-13T18:31:53.764Z,90.96
2022-09-13T18:34:36.960Z,91.18
2022-09-13T18:37:14.348Z,91.24
2022-09-13T18:40:16.240Z,91.34
2022-09-13T18:43:10.980Z,91.59
2022-09-13T18:48:57.137Z,91.86
2022-09-13T18:51:37.708Z,91.95
2022-09-13T18:54:19.502Z,92.06
2022-09-13T18:56:57.692Z,92.17
2022-09-13T19:03:11.928Z,92.47
2022-09-13T19:05:51.967Z,92.65
2022-09-13T19:15:06.889Z,92.93
2022-09-13T19:17:39.232Z,93.02
2022-09-13T19:20:22.493Z,93.04
2022-09-13T19:23:21.189Z,93.13
2022-09-13T19:26:23.133Z,93.19
2022-09-13T19:29:15.315Z,93.19
2022-09-13T19:31:59.351Z,93.34
2022-09-13T19:34:41.000Z,93.29
2022-09-13T19:37:33.202Z,93.34
2022-09-13T19:44:06.270Z,93.49
2022-09-13T19:46:42.434Z,93.54
2022-09-13T19:52:43.110Z,93.29
2022-09-13T19:55:24.321Z,93.39
2022-09-13T19:58:21.098Z,93.50
2022-09-13T20:01:16.316Z,93.59
2022-09-13T20:03:58.181Z,93.70
2022-09-13T20:06:43.619Z,93.70
2022-09-13T20:10:11.275Z,93.72
2022-09-13T20:13:15.459Z,93.75
2022-09-13T20:16:08.037Z,94.05
2022-09-13T20:18:47.036Z,94.00
2022-09-13T20:21:20.760Z,94.08
2022-09-13T20:24:01.117Z,94.13
2022-09-13T20:26:52.543Z,94.10
2022-09-13T20:29:25.794Z,94.27
2022-09-13T20:31:56.798Z,94.35
2022-09-13T20:34:28.586Z,94.21
2022-09-13T20:43:44.481Z,94.34
2022-09-13T20:46:31.088Z,94.46
2022-09-13T20:49:12.803Z,94.47
2022-09-13T20:52:34.088Z,94.44
2022-09-13T20:54:52.186Z,94.51
2022-09-13T20:57:58.149Z,94.59
2022-09-13T21:00:49.075Z,94.64
2022-09-13T21:03:25.720Z,94.58
2022-09-13T21:06:03.470Z,94.55
2022-09-13T21:08:52.948Z,94.57
2022-09-13T21:11:31.263Z,94.55
2022-09-13T21:14:09.407Z,94.46
2022-09-13T21:16:41.907Z,94.40
2022-09-13T21:19:13.984Z,94.27
2022-09-13T21:21:43.498Z,94.24
2022-09-13T21:24:36.019Z,94.16
2022-09-13T21:27:12.688Z,94.02
2022-09-13T21:30:24.010Z,94.00
2022-09-13T21:33:41.205Z,93.75
2022-09-13T21:48:01.954Z,93.28
2022-09-13T21:50:36.410Z,93.20
2022-09-13T21:53:09.814Z,93.22
2022-09-13T21:55:45.463Z,93.10
2022-09-13T21:58:22.480Z,93.12
2022-09-13T22:00:53.220Z,93.06
2022-09-13T22:03:40.076Z,93.02
2022-09-13T22:06:33.634Z,93.04
2022-09-13T22:09:10.946Z,92.96
2022-09-13T22:12:02.169Z,93.02
2022-09-13T22:17:52.710Z,93.20
2022-09-13T22:20:32.496Z,93.18
2022-09-13T22:23:23.093Z,93.20
2022-09-13T22:29:26.193Z,93.12
2022-09-13T22:43:53.514Z,93.46
2022-09-13T22:46:27.100Z,93.40
2022-09-13T22:49:03.460Z,93.35
2022-09-13T22:51:38.285Z,93.28
2022-09-13T22:54:11.259Z,93.21
2022-09-13T22:57:00.607Z,93.22
2022-09-13T22:59:38.894Z,93.33
2022-09-13T23:02:09.014Z,93.34
2022-09-13T23:04:43.969Z,93.33
2022-09-13T23:07:16.458Z,93.25
2022-09-13T23:09:50.328Z,93.26
2022-09-13T23:12:25.981Z,93.28
2022-09-13T23:14:58.595Z,93.43
2022-09-13T23:17:28.936Z,93.27
2022-09-13T23:20:04.660Z,93.22
2022-09-13T23:22:53.562Z,93.18
2022-09-13T23:25:28.246Z,93.26
2022-09-13T23:28:04.593Z,93.23
2022-09-13T23:30:34.878Z,93.24
2022-09-13T23:33:03.178Z,93.22
2022-09-13T23:35:33.810Z,93.20
2022-09-13T23:38:03.628Z,93.29
2022-09-13T23:40:32.289Z,93.34
2022-09-13T23:43:00.571Z,93.38
2022-09-13T23:45:29.321Z,93.36
2022-09-13T23:48:02.950Z,93.43
2022-09-13T23:50:31.399Z,93.58
2022-09-13T23:53:01.117Z,93.55
2022-09-13T23:55:29.562Z,93.52
2022-09-13T23:57:59.654Z,93.61
